Time;durP1;ratioP1;P1;durP2;ratioP2;P2;SDS_P1;SDS_P2;PMS_P1;PMS_P2;Temp;Humidity;BMP_temperature;BMP_pressure;BME280_temperature;BME280_humidity;BME280_pressure;Samples;Min_cycle;Max_cycle;Signal;HPM_P1;HPM_P2
2020/12/04 00:00:12;;;;;;;15.13;9.00;;;;;;;11.72;73.86;98140.91;5053212;28;20036;-60
2020/12/04 00:02:39;;;;;;;18.85;10.07;;;;;;;11.52;75.09;98147.09;5053888;28;20068;-61
2020/12/04 00:05:05;;;;;;;16.17;9.68;;;;;;;11.28;74.15;98135.00;5053756;28;20029;-59
2020/12/04 00:07:31;;;;;;;16.40;9.70;;;;;;;11.57;74.17;98126.47;5057666;28;20551;-61
2020/12/04 00:09:56;;;;;;;16.90;9.70;;;;;;;11.58;73.71;98116.56;5073520;28;20040;-60
2020/12/04 00:12:22;;;;;;;14.77;8.73;;;;;;;11.09;76.00;98112.56;5052850;28;20476;-60
2020/12/04 00:14:48;;;;;;;18.48;10.10;;;;;;;11.59;73.11;98112.81;5053570;28;20048;-60
2020/12/04 00:17:14;;;;;;;15.97;8.80;;;;;;;11.46;72.81;98108.81;5052992;28;20029;-60
2020/12/04 00:19:39;;;;;;;15.13;9.37;;;;;;;11.47;74.61;98116.59;5053584;28;20063;-60
2020/12/04 00:22:05;;;;;;;16.77;10.20;;;;;;;11.70;73.61;98102.91;5053299;28;20082;-59
2020/12/04 00:24:31;;;;;;;18.95;9.85;;;;;;;11.46;73.44;98098.09;5052300;28;20036;-60
2020/12/04 00:26:57;;;;;;;16.52;9.57;;;;;;;11.20;75.51;98111.47;5053392;28;20136;-59
2020/12/04 00:29:24;;;;;;;17.42;8.77;;;;;;;10.90;76.95;98091.66;5051350;28;20036;-60
2020/12/04 00:31:50;;;;;;;17.20;9.40;;;;;;;11.75;72.07;98101.03;5052005;28;20415;-61
2020/12/04 00:34:15;;;;;;;16.33;10.07;;;;;;;11.02;75.73;98083.38;5057546;28;20261;-59
2020/12/04 00:36:45;;;;;;;19.23;9.73;;;;;;;11.65;73.37;98076.13;5072646;28;20048;-60
2020/12/04 00:39:10;;;;;;;15.98;8.98;;;;;;;11.62;72.09;98072.94;5072798;28;20565;-60
2020/12/04 00:41:36;;;;;;;15.60;9.47;;;;;;;11.43;72.70;98058.50;5072431;28;20063;-60
2020/12/04 00:44:02;;;;;;;17.37;9.07;;;;;;;11.52;73.98;98059.56;5073105;28;20036;-61
2020/12/04 00:46:27;;;;;;;17.50;9.37;;;;;;;11.25;75.02;98066.00;5072234;28;20287;-60
2020/12/04 00:48:53;;;;;;;14.93;8.47;;;;;;;11.25;76.33;98054.50;5073335;28;20277;-60
2020/12/04 00:51:19;;;;;;;16.27;9.15;;;;;;;11.63;74.04;98060.34;5070823;28;20334;-59
2020/12/04 00:53:46;;;;;;;15.63;8.57;;;;;;;11.50;73.57;98051.00;5071348;28;20071;-60
2020/12/04 00:56:12;;;;;;;19.15;8.55;;;;;;;11.60;73.49;98024.22;5072687;28;20123;-60
2020/12/04 00:58:41;;;;;;;14.57;8.45;;;;;;;11.40;73.99;98022.38;5071669;28;20085;-60
2020/12/04 01:01:07;;;;;;;16.13;8.30;;;;;;;11.18;74.22;98052.09;5055476;28;20106;-61
2020/12/04 01:03:32;;;;;;;15.10;8.40;;;;;;;11.47;75.03;98027.44;5051735;28;20640;-59
2020/12/04 01:05:58;;;;;;;15.80;8.53;;;;;;;11.53;73.92;98026.34;5052523;28;20037;-60
2020/12/04 01:08:24;;;;;;;14.77;8.50;;;;;;;11.35;75.34;98021.59;5051881;28;20048;-61
2020/12/04 01:10:49;;;;;;;15.77;8.32;;;;;;;11.52;74.71;98030.09;5052519;28;20067;-60
2020/12/04 01:13:15;;;;;;;14.90;9.50;;;;;;;11.37;73.87;98009.53;5051709;28;20404;-60
2020/12/04 01:15:40;;;;;;;15.73;8.33;;;;;;;11.37;74.47;98003.41;5052095;28;20128;-60
2020/12/04 01:18:06;;;;;;;13.67;8.13;;;;;;;11.62;72.20;97999.84;5052410;28;20037;-61
2020/12/04 01:20:32;;;;;;;15.52;7.90;;;;;;;11.73;71.73;97987.22;5051925;28;20029;-60
2020/12/04 01:22:58;;;;;;;15.65;7.50;;;;;;;11.37;74.20;97998.03;5052542;28;20036;-60
2020/12/04 01:25:23;;;;;;;14.70;8.50;;;;;;;11.58;72.82;97994.25;5050523;28;20388;-60
2020/12/04 01:27:49;;;;;;;16.57;8.47;;;;;;;11.73;73.20;97990.72;5052360;28;20274;-60
2020/12/04 01:30:15;;;;;;;13.73;8.13;;;;;;;11.80;72.75;97989.63;5052152;28;20037;-56
2020/12/04 01:32:40;;;;;;;13.45;7.82;;;;;;;11.47;73.21;97977.41;5052507;28;20480;-61
2020/12/04 01:35:06;;;;;;;16.97;10.17;;;;;;;11.57;74.70;97965.88;5052617;28;20045;-60
2020/12/04 01:37:32;;;;;;;17.90;8.70;;;;;;;11.64;73.81;97975.50;5058818;28;20498;-59
2020/12/04 01:39:57;;;;;;;21.90;9.45;;;;;;;11.14;74.71;97962.75;5068944;28;20457;-60
2020/12/04 01:42:23;;;;;;;18.97;8.90;;;;;;;11.03;74.70;97957.41;5050969;28;20044;-59
2020/12/04 01:44:48;;;;;;;14.70;7.93;;;;;;;11.04;75.76;97953.66;5053279;28;20037;-60
2020/12/04 01:47:17;;;;;;;18.63;9.17;;;;;;;11.54;74.85;97938.84;5065870;28;20339;-60
2020/12/04 01:49:43;;;;;;;16.13;8.88;;;;;;;11.42;73.84;97953.34;5056328;28;20033;-60
2020/12/04 01:52:08;;;;;;;18.40;9.75;;;;;;;11.52;74.38;97938.34;5055073;28;20033;-60
2020/12/04 01:54:34;;;;;;;17.08;9.65;;;;;;;11.01;79.58;97956.09;5055364;28;20040;-59
2020/12/04 01:57:01;;;;;;;14.93;8.98;;;;;;;10.96;80.35;97932.03;5074884;28;20458;-60
2020/12/04 01:59:27;;;;;;;17.42;8.90;;;;;;;11.32;76.47;97948.81;5075467;28;20476;-61
2020/12/04 02:02:09;;;;;;;17.17;9.00;;;;;;;11.25;75.95;97921.53;5064063;28;20121;-59
2020/12/04 02:04:34;;;;;;;15.55;9.25;;;;;;;10.65;80.31;97921.34;5054205;28;20124;-60
2020/12/04 02:07:07;;;;;;;17.53;9.40;;;;;;;10.78;80.45;97930.69;5056063;28;20043;-60
2020/12/04 02:09:40;;;;;;;17.48;9.40;;;;;;;11.04;79.35;97926.13;5055405;28;20037;-61
2020/12/04 02:12:07;;;;;;;15.93;8.88;;;;;;;10.44;82.54;97924.81;5055632;28;20087;-61
2020/12/04 02:14:33;;;;;;;16.45;8.40;;;;;;;11.33;78.42;97909.47;5067237;28;20094;-61
2020/12/04 02:17:06;;;;;;;14.85;8.77;;;;;;;10.98;79.73;97920.00;5069311;28;20438;-60
2020/12/04 02:19:38;;;;;;;17.63;8.38;;;;;;;11.09;79.70;97904.72;5055118;28;20037;-61
2020/12/04 02:22:04;;;;;;;16.75;8.80;;;;;;;11.56;76.80;97885.84;5055863;28;20052;-59
2020/12/04 02:24:30;;;;;;;15.30;8.93;;;;;;;10.88;78.97;97890.59;5055043;28;20045;-59
2020/12/04 02:26:56;;;;;;;15.37;8.60;;;;;;;10.79;79.08;97874.31;5055660;28;20055;-60
2020/12/04 02:29:21;;;;;;;15.82;8.50;;;;;;;11.06;78.91;97875.84;5054882;28;20282;-59
2020/12/04 02:31:47;;;;;;;14.67;8.60;;;;;;;11.46;76.59;97876.81;5055245;28;20079;-60
2020/12/04 02:34:12;;;;;;;13.77;7.93;;;;;;;10.80;79.42;97846.50;5055483;28;20293;-61
2020/12/04 02:36:38;;;;;;;18.97;7.97;;;;;;;11.59;76.11;97843.28;5054373;28;20289;-59
2020/12/04 02:39:04;;;;;;;13.57;8.10;;;;;;;11.35;76.50;97847.69;5087620;28;20331;-59
2020/12/04 02:41:29;;;;;;;14.00;7.63;;;;;;;11.11;77.56;97870.50;5054449;28;20037;-60
2020/12/04 02:43:55;;;;;;;14.07;8.30;;;;;;;11.44;77.74;97838.81;5055002;28;20041;-62
2020/12/04 02:46:20;;;;;;;15.17;8.10;;;;;;;11.65;74.86;97828.00;5086933;28;20035;-59
2020/12/04 02:48:46;;;;;;;14.83;8.20;;;;;;;11.50;74.61;97823.50;5053890;28;20037;-61
2020/12/04 02:51:11;;;;;;;15.80;8.10;;;;;;;10.96;77.63;97814.41;5055258;28;20072;-60
2020/12/04 02:53:36;;;;;;;11.67;7.00;;;;;;;11.59;75.40;97837.94;5054208;28;20040;-60
2020/12/04 02:56:02;;;;;;;13.67;7.37;;;;;;;11.58;74.82;97809.56;5054947;28;20025;-61
2020/12/04 02:58:29;;;;;;;13.88;7.82;;;;;;;11.16;77.17;97822.31;5054538;28;20126;-62
2020/12/04 03:00:55;;;;;;;14.65;7.75;;;;;;;11.48;74.72;97814.97;5055175;28;20033;-61
2020/12/04 03:03:21;;;;;;;11.23;6.57;;;;;;;11.66;73.73;97813.53;5054353;28;20148;-59
2020/12/04 03:05:46;;;;;;;13.43;7.43;;;;;;;11.03;77.71;97786.25;5054917;28;20297;-61
2020/12/04 03:08:11;;;;;;;14.97;7.60;;;;;;;11.48;75.77;97801.59;5054813;28;20396;-61
2020/12/04 03:10:37;;;;;;;18.00;7.33;;;;;;;11.52;75.15;97797.28;5054300;28;20060;-60
2020/12/04 03:13:03;;;;;;;13.27;7.80;;;;;;;11.37;75.94;97818.78;5054599;28;20120;-60
2020/12/04 03:15:28;;;;;;;10.68;6.78;;;;;;;11.57;75.04;97802.63;5053950;28;20045;-59
2020/12/04 03:17:54;;;;;;;12.27;7.13;;;;;;;11.73;73.51;97797.16;5054788;28;20370;-59
2020/12/04 03:20:19;;;;;;;12.67;6.70;;;;;;;12.23;72.33;97797.09;5054759;28;20094;-60
2020/12/04 03:22:45;;;;;;;12.50;7.37;;;;;;;11.70;73.96;97792.38;5054029;28;20040;-60
2020/12/04 03:25:10;;;;;;;12.67;7.57;;;;;;;11.44;75.91;97773.78;5054257;28;20037;-60
2020/12/04 03:27:35;;;;;;;11.20;6.17;;;;;;;11.83;72.82;97790.94;5086273;28;20111;-60
2020/12/04 03:30:01;;;;;;;14.03;6.80;;;;;;;11.50;74.22;97807.47;5054726;28;20025;-60
2020/12/04 03:32:27;;;;;;;11.03;6.27;;;;;;;11.40;76.10;97797.59;5053975;28;20032;-60
2020/12/04 03:34:52;;;;;;;11.53;6.23;;;;;;;11.73;73.11;97781.09;5036588;28;20400;-61
2020/12/04 03:37:17;;;;;;;11.60;6.03;;;;;;;11.60;71.86;97775.31;5054432;28;20036;-60
2020/12/04 03:39:43;;;;;;;12.60;7.20;;;;;;;11.68;74.29;97784.63;5053851;28;20036;-60
2020/12/04 03:42:08;;;;;;;12.57;6.47;;;;;;;11.76;73.14;97776.00;5054532;28;20028;-60
2020/12/04 03:44:34;;;;;;;10.33;5.37;;;;;;;11.64;75.28;97788.91;5053675;28;20171;-61
2020/12/04 03:46:59;;;;;;;9.63;5.13;;;;;;;11.35;76.97;97778.91;5054076;28;20045;-61
2020/12/04 03:49:25;;;;;;;8.87;4.60;;;;;;;11.00;79.57;97770.00;5053312;28;20396;-60
2020/12/04 03:51:50;;;;;;;8.57;5.30;;;;;;;11.97;74.18;97775.03;5053851;28;20512;-60
2020/12/04 03:54:16;;;;;;;8.57;4.93;;;;;;;11.89;73.63;97779.91;5053772;28;20028;-61
2020/12/04 03:56:41;;;;;;;8.57;5.30;;;;;;;11.45;75.88;97775.38;5053403;28;20045;-61
2020/12/04 03:59:07;;;;;;;8.93;5.33;;;;;;;10.97;78.97;97781.22;5054047;28;20033;-61
2020/12/04 04:01:34;;;;;;;8.43;5.43;;;;;;;11.60;75.82;97766.44;5052026;28;20059;-61
2020/12/04 04:03:59;;;;;;;7.50;4.20;;;;;;;11.73;74.71;97759.69;5053943;28;20043;-61
2020/12/04 04:06:25;;;;;;;8.97;4.13;;;;;;;11.39;76.10;97755.09;5052074;28;20040;-58
2020/12/04 04:08:52;;;;;;;6.72;3.83;;;;;;;11.57;75.75;97793.78;5052990;28;20064;-60
2020/12/04 04:11:17;;;;;;;6.25;4.30;;;;;;;11.20;77.95;97785.13;5053778;28;20118;-61
2020/12/04 04:13:43;;;;;;;7.38;4.28;;;;;;;11.72;73.95;97758.06;5053059;28;20200;-60
2020/12/04 04:16:08;;;;;;;7.10;4.07;;;;;;;11.69;74.76;97754.09;5052489;28;20128;-61
2020/12/04 04:18:34;;;;;;;7.07;3.93;;;;;;;11.51;75.96;97752.84;5051829;28;20037;-61
2020/12/04 04:21:01;;;;;;;6.40;3.42;;;;;;;11.25;76.56;97762.91;5053311;28;20072;-60
2020/12/04 04:23:27;;;;;;;5.67;3.30;;;;;;;11.27;78.13;97763.44;5053338;28;20040;-60
2020/12/04 04:25:53;;;;;;;3.88;2.58;;;;;;;11.64;75.00;97764.03;5053567;28;20064;-61
2020/12/04 04:28:19;;;;;;;5.40;3.08;;;;;;;11.17;77.62;97765.06;5053270;28;20071;-60
2020/12/04 04:30:44;;;;;;;6.53;3.57;;;;;;;11.23;77.33;97768.53;5052650;28;20477;-61
2020/12/04 04:33:10;;;;;;;4.80;2.50;;;;;;;11.28;77.80;97775.75;5053251;28;20037;-61
2020/12/04 04:35:36;;;;;;;5.07;3.10;;;;;;;11.21;76.83;97792.09;5052674;28;20043;-60
2020/12/04 04:38:02;;;;;;;4.57;2.88;;;;;;;11.35;77.17;97770.88;5053228;28;20033;-61
2020/12/04 04:40:29;;;;;;;5.25;2.90;;;;;;;11.64;73.66;97777.41;5052330;28;20150;-61
2020/12/04 04:43:11;;;;;;;6.07;3.10;;;;;;;12.00;70.87;97791.34;5053095;28;20091;-61
2020/12/04 04:45:44;;;;;;;4.10;2.58;;;;;;;11.45;76.04;97778.06;5052010;28;20094;-61
2020/12/04 04:48:32;;;;;;;4.30;2.47;;;;;;;11.53;74.39;97758.72;5053100;28;20430;-61
2020/12/04 04:50:59;;;;;;;4.45;2.47;;;;;;;11.38;75.20;97780.25;5052710;28;20086;-61
2020/12/04 04:53:25;;;;;;;6.75;2.60;;;;;;;11.27;75.89;97748.19;5065850;28;20037;-61
2020/12/04 04:55:51;;;;;;;4.13;2.60;;;;;;;11.71;74.06;97783.25;5072218;28;20028;-61
2020/12/04 04:58:17;;;;;;;4.05;2.60;;;;;;;11.16;76.65;97765.38;5071613;28;20048;-61
2020/12/04 05:00:43;;;;;;;4.80;2.63;;;;;;;11.35;77.48;97778.13;5070969;28;20491;-60
2020/12/04 05:03:09;;;;;;;4.90;3.00;;;;;;;11.36;75.71;97780.50;5072459;28;20044;-61
2020/12/04 05:05:48;;;;;;;5.78;2.92;;;;;;;11.33;78.22;97781.06;5072037;28;20091;-61
2020/12/04 05:08:16;;;;;;;4.40;2.10;;;;;;;11.25;78.87;97771.72;5072397;28;20484;-61
2020/12/04 05:10:43;;;;;;;4.53;2.75;;;;;;;11.50;75.43;97759.28;5071990;28;20036;-60
2020/12/04 05:13:09;;;;;;;17.65;3.40;;;;;;;11.54;76.51;97767.56;5072352;28;20032;-61
2020/12/04 05:15:35;;;;;;;4.50;2.60;;;;;;;11.59;75.59;97762.19;5070725;28;20036;-59
2020/12/04 05:18:10;;;;;;;4.63;2.57;;;;;;;11.35;76.89;97759.41;5071293;28;20033;-61
2020/12/04 05:20:41;;;;;;;4.78;2.67;;;;;;;11.67;75.11;97752.78;5071597;28;20568;-60
2020/12/04 05:23:07;;;;;;;3.55;2.30;;;;;;;11.66;74.00;97735.91;5054530;28;20490;-60
2020/12/04 05:25:42;;;;;;;5.82;3.15;;;;;;;11.66;73.33;97754.66;5071863;28;20041;-60
2020/12/04 05:28:12;;;;;;;3.92;2.28;;;;;;;11.78;72.20;97751.63;5070874;28;20037;-61
2020/12/04 05:30:42;;;;;;;4.82;2.67;;;;;;;11.83;70.54;97751.59;5071883;28;20040;-60
2020/12/04 05:33:09;;;;;;;3.55;1.90;;;;;;;11.74;71.56;97739.84;5072220;28;20032;-61
2020/12/04 05:35:36;;;;;;;3.15;2.08;;;;;;;11.66;73.30;97743.94;5071818;28;20491;-61
2020/12/04 05:38:09;;;;;;;3.88;2.60;;;;;;;11.57;74.78;97773.19;5053900;28;20041;-59
2020/12/04 05:40:35;;;;;;;4.00;2.53;;;;;;;11.81;73.10;97755.59;5060506;28;20120;-59
2020/12/04 05:43:01;;;;;;;3.77;2.77;;;;;;;11.82;71.67;97776.75;5053663;28;20033;-60
2020/12/04 05:45:27;;;;;;;3.10;2.15;;;;;;;11.69;73.70;97798.78;5051884;28;20362;-61
2020/12/04 05:47:52;;;;;;;4.67;2.83;;;;;;;11.97;71.24;97799.13;5065521;28;20062;-61
2020/12/04 05:50:18;;;;;;;5.73;3.03;;;;;;;11.87;71.13;97774.03;5051423;28;20037;-59
2020/12/04 05:52:47;;;;;;;4.40;2.00;;;;;;;11.68;71.66;97775.78;5071382;28;20075;-61
2020/12/04 05:55:13;;;;;;;3.53;2.45;;;;;;;11.87;71.34;97792.78;5070529;28;20032;-60
2020/12/04 05:57:43;;;;;;;3.70;2.30;;;;;;;11.89;72.25;97792.53;5061009;28;20040;-61
2020/12/04 06:00:10;;;;;;;3.13;1.92;;;;;;;12.23;70.34;97788.28;5069507;28;20036;-61
2020/12/04 06:02:38;;;;;;;4.00;2.30;;;;;;;11.68;73.55;97805.22;5051369;28;20052;-61
2020/12/04 06:05:03;;;;;;;2.58;1.80;;;;;;;11.77;74.10;97798.22;5056182;28;20040;-61
2020/12/04 06:07:29;;;;;;;2.72;1.65;;;;;;;11.78;72.61;97778.41;5072003;28;20494;-58
2020/12/04 06:09:56;;;;;;;3.77;2.07;;;;;;;12.19;70.07;97774.63;5069781;28;20135;-60
2020/12/04 06:12:25;;;;;;;7.18;2.55;;;;;;;12.99;65.89;97761.75;5071068;28;20042;-60
2020/12/04 06:14:51;;;;;;;5.10;2.47;;;;;;;12.80;65.12;97785.84;5064738;28;20532;-60
2020/12/04 06:17:17;;;;;;;3.55;2.03;;;;;;;12.60;67.06;97784.16;5060590;28;20045;-60
2020/12/04 06:19:44;;;;;;;3.72;2.30;;;;;;;12.61;66.98;97791.13;5052250;28;20507;-60
2020/12/04 06:22:13;;;;;;;3.65;2.65;;;;;;;12.50;67.08;97797.69;5060194;28;20456;-60
2020/12/04 06:24:58;;;;;;;3.00;2.08;;;;;;;13.14;63.41;97773.34;5058640;28;20090;-60
2020/12/04 06:27:48;;;;;;;4.10;2.13;;;;;;;12.80;64.34;97780.47;5051752;28;20120;-61
2020/12/04 06:30:18;;;;;;;4.60;2.00;;;;;;;12.65;65.43;97786.78;5051734;28;20029;-61
2020/12/04 06:32:45;;;;;;;3.70;2.13;;;;;;;12.35;68.38;97802.09;5054857;28;20068;-60
2020/12/04 06:35:12;;;;;;;4.13;2.17;;;;;;;11.94;70.45;97805.06;5056155;28;20040;-60
2020/12/04 06:37:45;;;;;;;3.00;1.90;;;;;;;12.14;69.78;97788.06;5055257;28;20108;-60
2020/12/04 06:40:31;;;;;;;3.63;2.10;;;;;;;12.50;67.75;97795.78;5055451;28;20037;-61
2020/12/04 06:43:01;;;;;;;3.17;1.92;;;;;;;11.96;71.15;97797.53;5054750;28;20048;-60
2020/12/04 06:45:47;;;;;;;4.65;1.58;;;;;;;12.05;71.33;97809.31;5055187;28;20068;-60
2020/12/04 06:48:17;;;;;;;4.75;1.85;;;;;;;12.22;70.57;97805.41;5053998;28;20072;-60
2020/12/04 06:50:45;;;;;;;4.85;2.03;;;;;;;12.07;71.81;97811.69;5054614;28;20583;-59
2020/12/04 06:53:12;;;;;;;5.40;1.85;;;;;;;12.31;70.30;97825.16;5055067;28;20477;-61
2020/12/04 06:55:39;;;;;;;3.88;1.80;;;;;;;12.49;69.63;97823.66;5054363;28;20037;-60
2020/12/04 06:58:05;;;;;;;2.13;1.50;;;;;;;12.36;70.11;97841.19;5054976;28;20140;-61
2020/12/04 07:00:31;;;;;;;1.77;1.25;;;;;;;12.44;70.32;97847.84;5054813;28;20082;-61
2020/12/04 07:03:01;;;;;;;3.90;1.77;;;;;;;12.67;67.97;97858.91;5068789;28;20046;-62
2020/12/04 07:05:28;;;;;;;2.67;1.38;;;;;;;12.67;69.31;97865.03;5074267;28;20071;-60
2020/12/04 07:08:07;;;;;;;3.28;1.55;;;;;;;12.60;69.92;97862.72;5074138;28;20069;-60
2020/12/04 07:10:37;;;;;;;1.95;1.33;;;;;;;12.46;72.37;97857.22;5074667;28;20043;-61
2020/12/04 07:13:04;;;;;;;1.73;1.17;;;;;;;12.57;71.22;97860.59;5070716;28;20047;-60
2020/12/04 07:15:31;;;;;;;2.47;1.40;;;;;;;13.33;67.58;97878.84;5056518;28;20037;-60
2020/12/04 07:17:58;;;;;;;1.48;1.05;;;;;;;12.97;69.02;97881.94;5063850;28;20131;-60
2020/12/04 07:20:34;;;;;;;1.95;1.20;;;;;;;12.68;70.10;97863.97;5073171;28;20028;-60
2020/12/04 07:23:00;;;;;;;2.03;1.10;;;;;;;12.81;71.54;97893.91;5066816;28;20484;-60
2020/12/04 07:25:26;;;;;;;2.33;1.13;;;;;;;12.23;74.37;97882.03;5059043;28;20078;-59
2020/12/04 07:27:52;;;;;;;2.90;1.30;;;;;;;12.50;73.53;97915.63;5070988;28;20067;-59
2020/12/04 07:30:18;;;;;;;2.28;1.08;;;;;;;12.75;72.59;97891.25;5053686;28;20068;-60
2020/12/04 07:32:54;;;;;;;1.70;0.88;;;;;;;12.88;69.09;97883.63;5054056;28;20112;-59
2020/12/04 07:35:21;;;;;;;2.47;1.25;;;;;;;13.37;67.85;97897.06;5054634;28;20119;-60
2020/12/04 07:37:47;;;;;;;2.08;0.95;;;;;;;13.13;67.36;97905.91;5054158;28;20058;-61
2020/12/04 07:40:15;;;;;;;5.35;1.33;;;;;;;12.94;69.41;97892.44;5054101;28;20037;-61
2020/12/04 07:42:40;;;;;;;2.17;1.17;;;;;;;12.98;68.65;97902.31;5060438;28;20044;-57
2020/12/04 07:45:06;;;;;;;2.65;1.55;;;;;;;12.53;69.59;97904.31;5054151;28;20040;-60
2020/12/04 07:47:32;;;;;;;1.83;1.03;;;;;;;12.98;67.77;97915.72;5055294;28;20037;-60
2020/12/04 07:50:03;;;;;;;1.63;0.90;;;;;;;12.91;67.54;97916.06;5056017;28;20266;-60
2020/12/04 07:52:34;;;;;;;2.00;1.00;;;;;;;12.87;70.40;97924.94;5053887;28;20134;-60
2020/12/04 07:55:02;;;;;;;1.67;1.10;;;;;;;13.07;66.18;97929.34;5062116;28;20108;-59
2020/12/04 07:57:56;;;;;;;5.75;0.80;;;;;;;12.81;67.52;97936.81;5055524;28;20044;-59
2020/12/04 08:00:22;;;;;;;1.30;0.77;;;;;;;13.06;65.65;97941.16;5053432;28;20057;-60
2020/12/04 08:02:47;;;;;;;1.17;0.90;;;;;;;12.90;64.49;97953.88;5052947;28;20068;-60
2020/12/04 08:05:22;;;;;;;3.77;1.00;;;;;;;13.22;61.36;97975.88;5072487;28;20055;-61
2020/12/04 08:07:52;;;;;;;0.80;0.60;;;;;;;13.79;59.94;97954.59;5057963;28;20082;-59
2020/12/04 08:10:21;;;;;;;1.27;0.50;;;;;;;13.61;61.05;97980.34;5058878;28;20052;-60
2020/12/04 08:12:51;;;;;;;0.47;0.40;;;;;;;13.65;57.48;97978.66;5054710;28;20041;-60
2020/12/04 08:15:21;;;;;;;1.05;0.60;;;;;;;13.58;56.41;98013.13;5055517;28;20041;-61
2020/12/04 08:17:46;;;;;;;0.40;0.40;;;;;;;13.46;57.58;98043.84;5051987;28;20118;-60
2020/12/04 08:20:17;;;;;;;3.87;0.43;;;;;;;13.88;55.12;98020.06;5055690;28;20431;-61
2020/12/04 08:22:49;;;;;;;3.58;0.50;;;;;;;14.00;55.42;97997.34;5059566;28;20424;-56
2020/12/04 08:25:22;;;;;;;0.77;0.40;;;;;;;13.83;55.09;98025.47;5068743;28;20033;-61
2020/12/04 08:27:47;;;;;;;0.60;0.40;;;;;;;14.08;53.97;98020.91;5070754;28;20063;-59
2020/12/04 08:30:21;;;;;;;0.43;0.40;;;;;;;13.34;56.49;98046.09;5072982;28;20040;-60
2020/12/04 08:33:01;;;;;;;1.10;0.57;;;;;;;14.36;52.85;98013.00;5072217;28;20068;-60
2020/12/04 08:35:39;;;;;;;2.40;0.40;;;;;;;13.61;53.88;97996.44;5066546;28;20041;-61
2020/12/04 08:38:26;;;;;;;;;;;;;;;13.95;53.54;98027.75;5051870;28;20032;-61
2020/12/04 08:40:54;;;;;;;0.40;0.40;;;;;;;14.73;52.40;98024.88;5051748;28;19913;-61
2020/12/04 08:43:22;;;;;;;3.88;0.52;;;;;;;14.41;52.01;98023.69;5064317;28;20068;-60
2020/12/04 08:45:52;;;;;;;0.45;0.45;;;;;;;13.95;52.13;98018.91;5068902;28;20464;-60
2020/12/04 08:48:22;;;;;;;0.93;0.50;;;;;;;14.26;51.96;98046.19;5072375;28;20091;-60
2020/12/04 08:50:50;;;;;;;0.45;0.40;;;;;;;13.99;52.57;98047.59;5069644;28;20400;-58
2020/12/04 08:53:18;;;;;;;1.88;0.70;;;;;;;14.23;51.51;98027.16;5071468;28;20036;-60
2020/12/04 08:55:52;;;;;;;1.27;0.47;;;;;;;13.73;52.85;98049.75;5072378;28;20090;-57
2020/12/04 08:58:19;;;;;;;0.47;0.40;;;;;;;13.83;52.22;98051.53;5072466;28;20036;-60
2020/12/04 09:00:47;;;;;;;0.85;0.63;;;;;;;13.97;52.32;98073.97;5071892;28;20045;-58
2020/12/04 09:03:13;;;;;;;0.40;0.40;;;;;;;13.91;51.39;98054.41;5072478;28;20037;-60
2020/12/04 09:05:38;;;;;;;0.93;0.47;;;;;;;13.99;51.75;98068.28;5070467;28;20041;-61
2020/12/04 09:08:05;;;;;;;0.87;0.50;;;;;;;14.12;51.43;98070.28;5060867;28;20540;-61
2020/12/04 09:10:30;;;;;;;0.50;0.50;;;;;;;14.28;51.19;98067.41;5052563;28;20045;-62
2020/12/04 09:12:56;;;;;;;1.07;0.60;;;;;;;14.16;51.70;98078.56;5051926;28;20110;-60
2020/12/04 09:15:22;;;;;;;1.05;0.50;;;;;;;13.90;51.96;98082.34;5050880;28;20036;-61
2020/12/04 09:17:48;;;;;;;2.28;0.52;;;;;;;13.42;52.37;98095.69;5051402;28;20055;-60
2020/12/04 09:20:14;;;;;;;1.02;0.80;;;;;;;14.97;48.52;98103.91;5051061;28;20468;-59
2020/12/04 09:22:41;;;;;;;2.00;0.90;;;;;;;15.91;46.11;98093.25;5053977;28;20115;-60
2020/12/04 09:25:08;;;;;;;0.82;0.77;;;;;;;16.17;44.81;98090.88;5059074;28;20055;-59
2020/12/04 09:27:34;;;;;;;2.25;0.60;;;;;;;16.24;42.84;98116.63;5070817;28;20086;-61
2020/12/04 09:30:00;;;;;;;1.02;0.80;;;;;;;16.33;43.53;98095.94;5072025;28;20032;-61
2020/12/04 09:32:27;;;;;;;0.57;0.50;;;;;;;17.05;42.54;98105.19;5071488;28;20040;-61
2020/12/04 09:34:53;;;;;;;1.20;0.60;;;;;;;17.87;40.84;98108.88;5067922;28;20514;-61
2020/12/04 09:37:25;;;;;;;1.27;0.57;;;;;;;16.69;43.93;98121.38;5071239;28;20273;-61
2020/12/04 09:39:53;;;;;;;2.00;0.77;;;;;;;16.41;44.17;98124.91;5070964;28;20037;-60
2020/12/04 09:42:20;;;;;;;0.90;0.60;;;;;;;16.89;42.58;98142.50;5071292;28;20319;-60
2020/12/04 09:44:46;;;;;;;;;;;;;;;17.23;41.36;98128.88;5069987;28;20276;-61
2020/12/04 09:47:13;;;;;;;2.17;0.70;;;;;;;17.89;39.70;98112.88;5068626;28;20351;-60
2020/12/04 09:49:40;;;;;;;1.30;0.87;;;;;;;17.03;41.21;98147.91;5069641;28;20578;-61
2020/12/04 09:52:06;;;;;;;2.92;1.50;;;;;;;17.05;40.32;98131.41;5071045;28;20281;-61
2020/12/04 09:54:35;;;;;;;0.70;0.70;;;;;;;16.91;40.44;98129.50;5070829;28;20039;-60
2020/12/04 09:57:02;;;;;;;1.03;0.50;;;;;;;16.49;41.49;98129.59;5069353;28;20041;-61
2020/12/04 09:59:27;;;;;;;0.97;0.63;;;;;;;16.56;40.67;98155.34;5071233;28;20810;-62
2020/12/04 10:01:53;;;;;;;0.63;0.33;;;;;;;17.81;39.06;98143.38;5071352;28;20266;-61
2020/12/04 10:04:21;;;;;;;0.35;0.35;;;;;;;15.50;41.90;98156.69;5071658;28;20036;-60
2020/12/04 10:06:47;;;;;;;1.53;0.60;;;;;;;14.81;43.30;98162.53;5074489;28;20044;-61
2020/12/04 10:09:14;;;;;;;2.88;0.45;;;;;;;15.71;42.19;98167.13;5074554;28;20277;-60
2020/12/04 10:11:40;;;;;;;2.57;0.50;;;;;;;15.81;42.45;98139.22;5074191;28;20036;-60
2020/12/04 10:14:06;;;;;;;0.70;0.50;;;;;;;16.12;40.92;98162.94;5074790;28;20281;-62
2020/12/04 10:16:32;;;;;;;1.42;0.70;;;;;;;17.45;39.30;98146.97;5075761;28;20047;-61
2020/12/04 10:18:58;;;;;;;2.80;0.68;;;;;;;17.96;37.47;98180.03;5074285;28;20431;-58
2020/12/04 10:21:31;;;;;;;0.65;0.40;;;;;;;17.70;37.08;98169.06;5075629;28;20400;-61
2020/12/04 10:23:57;;;;;;;0.97;0.60;;;;;;;17.03;38.80;98184.91;5073754;28;20040;-58
2020/12/04 10:26:22;;;;;;;0.32;0.30;;;;;;;16.18;39.83;98188.72;5073895;28;20736;-61
2020/12/04 10:28:48;;;;;;;0.60;0.40;;;;;;;15.87;40.94;98200.00;5075407;28;20111;-60
2020/12/04 10:31:14;;;;;;;1.33;0.80;;;;;;;15.47;41.60;98189.59;5074646;28;20383;-60
2020/12/04 10:33:39;;;;;;;0.52;0.52;;;;;;;16.47;40.48;98169.56;5075048;28;20040;-59
2020/12/04 10:36:05;;;;;;;3.00;0.53;;;;;;;15.62;40.77;98210.88;5073232;28;20041;-59
2020/12/04 10:38:30;;;;;;;1.50;0.60;;;;;;;15.97;41.04;98174.81;5074569;28;20391;-60
2020/12/04 10:40:58;;;;;;;0.60;0.60;;;;;;;16.29;39.82;98211.72;5075099;28;20044;-61
2020/12/04 10:43:23;;;;;;;0.87;0.50;;;;;;;18.15;37.30;98163.63;5074165;28;20025;-61
2020/12/04 10:45:50;;;;;;;0.97;0.70;;;;;;;18.28;36.88;98177.38;5074622;28;20285;-60
2020/12/04 10:48:16;;;;;;;1.60;0.67;;;;;;;18.48;36.42;98179.50;5074370;28;20075;-60
2020/12/04 10:50:41;;;;;;;1.43;0.60;;;;;;;17.68;37.67;98169.38;5074488;28;20272;-60
2020/12/04 10:53:06;;;;;;;0.90;0.67;;;;;;;18.41;37.26;98184.56;5073776;28;20044;-61
2020/12/04 10:55:32;;;;;;;1.60;0.73;;;;;;;18.09;36.21;98197.31;5074667;28;20743;-61
2020/12/04 10:57:57;;;;;;;0.40;0.40;;;;;;;17.68;36.70;98192.91;5074917;28;20041;-59
2020/12/04 11:00:23;;;;;;;3.80;0.83;;;;;;;17.49;37.13;98191.16;5074166;28;20495;-61
2020/12/04 11:02:53;;;;;;;1.13;0.57;;;;;;;15.98;40.19;98211.44;5074804;28;20127;-60
2020/12/04 11:05:36;;;;;;;1.87;0.40;;;;;;;14.98;40.92;98202.38;5073275;28;20041;-60
2020/12/04 11:08:01;;;;;;;0.90;0.60;;;;;;;15.66;40.89;98200.34;5074182;28;20399;-60
2020/12/04 11:10:27;;;;;;;1.73;0.50;;;;;;;15.09;41.73;98214.59;5074147;28;20265;-61
2020/12/04 11:12:52;;;;;;;1.27;0.67;;;;;;;14.98;42.38;98197.00;5074693;28;20468;-58
2020/12/04 11:15:18;;;;;;;2.07;0.60;;;;;;;15.03;42.12;98226.53;5073623;28;20253;-59
2020/12/04 11:17:44;;;;;;;0.40;0.40;;;;;;;15.31;42.52;98216.75;5073159;28;20036;-59
2020/12/04 11:20:09;;;;;;;5.67;0.50;;;;;;;15.22;42.49;98223.84;5073039;28;20078;-60
2020/12/04 11:22:35;;;;;;;2.00;0.60;;;;;;;15.08;43.10;98223.00;5073987;28;20043;-59
2020/12/04 11:25:02;;;;;;;1.05;0.50;;;;;;;14.87;43.96;98236.69;5074248;28;20476;-61
2020/12/04 11:27:28;;;;;;;0.45;0.40;;;;;;;14.91;43.44;98232.34;5073400;28;20028;-61
2020/12/04 11:29:53;;;;;;;2.70;0.60;;;;;;;15.34;43.83;98235.00;5074547;28;20503;-60
2020/12/04 11:32:19;;;;;;;0.40;0.40;;;;;;;14.99;44.70;98247.03;5073837;28;20391;-60